createdAt,value
2019-02-20T00:00:00.030Z,78.54
2019-02-20T00:01:00.005Z,78.45
2019-02-20T00:01:59.973Z,78.45
2019-02-20T00:02:59.950Z,78.54
2019-02-20T00:03:59.936Z,77.88
2019-02-20T00:04:59.909Z,78.16
2019-02-20T00:05:59.902Z,77.88
2019-02-20T00:06:59.884Z,77.88
2019-02-20T00:07:59.857Z,77.88
2019-02-20T00:08:59.838Z,78.07
2019-02-20T00:09:59.823Z,77.97
2019-02-20T00:10:59.807Z,78.54
2019-02-20T00:12:01.570Z,78.54
2019-02-20T00:12:59.760Z,78.16
2019-02-20T00:13:59.749Z,78.07
2019-02-20T00:14:59.712Z,77.88
2019-02-20T00:15:59.707Z,78.26
2019-02-20T00:16:59.686Z,78.35
2019-02-20T00:17:59.667Z,78.35
2019-02-20T00:18:59.640Z,78.35
2019-02-20T00:19:59.624Z,78.45
2019-02-20T00:20:59.609Z,78.26
2019-02-20T00:21:59.583Z,78.26
2019-02-20T00:22:59.565Z,78.16
2019-02-20T00:23:59.548Z,78.35
2019-02-20T00:24:59.544Z,78.35
2019-02-20T00:25:59.510Z,78.54
2019-02-20T00:26:59.488Z,79.02
2019-02-20T00:27:59.472Z,78.92
2019-02-20T00:28:59.450Z,78.64
2019-02-20T00:29:59.430Z,78.83
2019-02-20T00:30:59.411Z,79.02
2019-02-20T00:31:59.394Z,79.02
2019-02-20T00:32:59.374Z,79.11
2019-02-20T00:33:59.362Z,79.11
2019-02-20T00:34:59.334Z,79.02
2019-02-20T00:35:59.312Z,79.30
2019-02-20T00:36:59.292Z,78.92
2019-02-20T00:37:59.275Z,79.02
2019-02-20T00:38:59.263Z,79.21
2019-02-20T00:39:59.239Z,79.11
2019-02-20T00:40:59.220Z,79.02
2019-02-20T00:41:59.198Z,79.11
2019-02-20T00:42:59.198Z,79.02
2019-02-20T00:43:59.158Z,79.39
2019-02-20T00:44:59.139Z,78.92
2019-02-20T00:45:59.130Z,78.92
2019-02-20T00:46:59.124Z,79.30
2019-02-20T00:47:59.087Z,78.92
2019-02-20T00:48:59.064Z,78.92
2019-02-20T00:49:59.048Z,79.02
2019-02-20T00:50:59.021Z,78.83
2019-02-20T00:51:59.003Z,78.92
2019-02-20T00:52:59.006Z,79.30
2019-02-20T00:53:58.966Z,79.49
2019-02-20T00:54:58.968Z,79.58
2019-02-20T00:55:58.932Z,79.02
2019-02-20T00:56:58.903Z,79.11
2019-02-20T00:57:58.890Z,79.49
2019-02-20T00:58:58.869Z,79.39
2019-02-20T00:59:58.852Z,79.39
2019-02-20T01:00:58.838Z,79.21
2019-02-20T01:01:58.815Z,79.30
2019-02-20T01:02:58.790Z,79.21
2019-02-20T01:03:58.773Z,79.39
2019-02-20T01:04:58.752Z,79.39
2019-02-20T01:05:58.731Z,79.02
2019-02-20T01:06:58.710Z,79.21
2019-02-20T01:07:58.689Z,79.39
2019-02-20T01:08:58.672Z,79.21
2019-02-20T01:09:58.653Z,79.39
2019-02-20T01:10:58.626Z,79.30
2019-02-20T01:11:58.618Z,79.30
2019-02-20T01:12:58.600Z,79.39
2019-02-20T01:13:58.585Z,79.30
2019-02-20T01:14:58.568Z,79.02
2019-02-20T01:15:58.534Z,79.11
2019-02-20T01:16:58.519Z,79.02
2019-02-20T01:17:58.506Z,78.92
2019-02-20T01:18:58.487Z,79.02
2019-02-20T01:19:58.464Z,79.21
2019-02-20T01:20:58.439Z,79.11
2019-02-20T01:21:58.432Z,79.11
2019-02-20T01:23:00.212Z,79.30
2019-02-20T01:23:58.389Z,80.06
2019-02-20T01:24:58.362Z,80.06
2019-02-20T01:25:58.345Z,80.06
2019-02-20T01:26:58.324Z,79.87
2019-02-20T01:27:58.302Z,80.06
2019-02-20T01:28:58.304Z,79.77
2019-02-20T01:29:58.296Z,79.87
2019-02-20T01:30:58.246Z,79.87
2019-02-20T01:31:58.238Z,79.87
2019-02-20T01:32:58.209Z,79.87
2019-02-20T01:33:58.203Z,79.58
2019-02-20T01:34:58.170Z,79.77
2019-02-20T01:35:58.162Z,80.06
2019-02-20T01:36:58.161Z,80.25
2019-02-20T01:37:58.114Z,80.25
2019-02-20T01:38:58.095Z,80.25
2019-02-20T01:39:58.073Z,80.25
2019-02-20T01:40:58.056Z,80.25
2019-02-20T01:41:58.032Z,79.87
2019-02-20T01:42:58.011Z,80.06
2019-02-20T01:43:57.994Z,80.25
2019-02-20T01:44:57.993Z,80.34
2019-02-20T01:45:57.952Z,80.25
2019-02-20T01:46:57.940Z,80.06
2019-02-20T01:47:57.914Z,80.25
2019-02-20T01:48:57.896Z,80.25
2019-02-20T01:49:57.894Z,80.25
2019-02-20T01:50:57.857Z,80.34
2019-02-20T01:51:57.841Z,80.06
2019-02-20T01:52:57.842Z,80.06
2019-02-20T01:53:57.799Z,80.34
2019-02-20T01:54:57.786Z,80.44
2019-02-20T01:55:57.754Z,80.25
2019-02-20T01:56:57.738Z,80.63
2019-02-20T01:57:57.722Z,80.34
2019-02-20T01:58:57.701Z,80.25
2019-02-20T01:59:57.682Z,80.53
2019-02-20T02:00:57.662Z,80.53
2019-02-20T02:01:57.640Z,80.25
2019-02-20T02:02:57.621Z,80.25
2019-02-20T02:03:57.594Z,80.34
2019-02-20T02:04:57.612Z,80.44
2019-02-20T02:05:57.572Z,80.44
2019-02-20T02:06:57.541Z,80.44
2019-02-20T02:07:57.534Z,80.53
2019-02-20T02:08:57.511Z,80.82
2019-02-20T02:09:57.496Z,80.72
2019-02-20T02:10:57.466Z,80.91
2019-02-20T02:11:57.446Z,80.91
2019-02-20T02:12:57.441Z,80.68
2019-02-20T02:13:57.405Z,80.49
2019-02-20T02:14:57.386Z,80.40
2019-02-20T02:15:57.373Z,80.40
2019-02-20T02:16:57.347Z,80.68
2019-02-20T02:17:57.332Z,80.58
2019-02-20T02:18:57.314Z,80.49
2019-02-20T02:19:57.293Z,81.06
2019-02-20T02:20:57.268Z,80.87
2019-02-20T02:21:57.250Z,81.06
2019-02-20T02:22:57.243Z,81.06
2019-02-20T02:23:57.210Z,81.15
2019-02-20T02:24:57.196Z,81.15
2019-02-20T02:25:57.181Z,81.15
2019-02-20T02:26:57.151Z,81.06
2019-02-20T02:27:57.145Z,81.15
2019-02-20T02:28:57.147Z,81.15
2019-02-20T02:29:57.116Z,81.15
2019-02-20T02:30:57.098Z,81.34
2019-02-20T02:31:57.059Z,81.25
2019-02-20T02:32:57.423Z,81.34
2019-02-20T02:33:57.020Z,81.53
2019-02-20T02:34:56.994Z,81.53
2019-02-20T02:35:56.981Z,81.63
2019-02-20T02:36:56.971Z,81.72
2019-02-20T02:37:56.949Z,81.72
2019-02-20T02:38:56.915Z,81.44
2019-02-20T02:39:56.905Z,81.72
2019-02-20T02:40:56.883Z,81.44
2019-02-20T02:41:56.852Z,81.53
2019-02-20T02:42:56.845Z,81.44
2019-02-20T02:43:56.836Z,81.82
2019-02-20T02:44:56.800Z,81.72
2019-02-20T02:45:56.790Z,81.63
2019-02-20T02:46:56.765Z,81.44
2019-02-20T02:47:56.749Z,81.44
2019-02-20T02:48:56.719Z,81.44
2019-02-20T02:49:56.701Z,81.63
2019-02-20T02:50:56.684Z,81.82
2019-02-20T02:51:56.682Z,81.53
2019-02-20T02:52:56.656Z,81.44
2019-02-20T02:53:56.622Z,81.44
2019-02-20T02:54:56.599Z,81.53
2019-02-20T02:55:56.590Z,81.63
2019-02-20T02:56:56.559Z,81.53
2019-02-20T02:57:56.553Z,81.53
2019-02-20T02:58:56.521Z,81.53
2019-02-20T02:59:56.513Z,81.34
2019-02-20T03:00:56.496Z,81.53
2019-02-20T03:01:56.467Z,81.34
2019-02-20T03:02:56.453Z,81.92
2019-02-20T03:03:56.429Z,81.53
2019-02-20T03:04:56.408Z,81.34
2019-02-20T03:05:56.393Z,81.15
2019-02-20T03:06:56.369Z,81.44
2019-02-20T03:07:56.348Z,81.72
2019-02-20T03:08:56.329Z,81.76
2019-02-20T03:09:56.311Z,81.53
2019-02-20T03:10:56.291Z,81.44
2019-02-20T03:11:56.263Z,81.25
2019-02-20T03:12:56.251Z,81.44
2019-02-20T03:13:56.230Z,81.44
2019-02-20T03:14:56.216Z,81.72
2019-02-20T03:15:56.188Z,81.92
2019-02-20T03:16:56.167Z,82.01
2019-02-20T03:17:56.149Z,81.72
2019-02-20T03:18:56.132Z,81.92
2019-02-20T03:19:56.114Z,81.92
2019-02-20T03:20:56.093Z,81.92
2019-02-20T03:21:56.077Z,81.63
2019-02-20T03:22:56.106Z,81.72
2019-02-20T03:23:56.042Z,81.53
2019-02-20T03:24:56.018Z,81.72
2019-02-20T03:25:56.001Z,81.72
2019-02-20T03:26:55.981Z,81.53
2019-02-20T03:27:55.951Z,81.72
2019-02-20T03:28:55.939Z,81.92
2019-02-20T03:29:55.915Z,82.01
2019-02-20T03:30:55.897Z,82.10
2019-02-20T03:31:55.895Z,82.01
2019-02-20T03:32:55.855Z,81.82
2019-02-20T03:33:55.855Z,81.82
2019-02-20T03:34:55.816Z,81.82
2019-02-20T03:35:55.802Z,81.92
2019-02-20T03:36:55.777Z,82.01
2019-02-20T03:37:55.758Z,81.72
2019-02-20T03:38:55.734Z,81.82
2019-02-20T03:39:55.727Z,82.01
2019-02-20T03:40:55.706Z,81.82
2019-02-20T03:41:55.680Z,82.57
2019-02-20T03:42:55.658Z,82.67
2019-02-20T03:43:55.643Z,82.48
2019-02-20T03:44:55.623Z,82.67
2019-02-20T03:45:55.602Z,82.57
2019-02-20T03:46:55.578Z,82.39
2019-02-20T03:47:55.562Z,82.57
2019-02-20T03:48:55.538Z,82.57
2019-02-20T03:49:55.524Z,82.95
2019-02-20T03:50:55.502Z,82.76
2019-02-20T03:51:55.482Z,82.76
2019-02-20T03:52:55.468Z,82.67
2019-02-20T03:53:55.448Z,82.95
2019-02-20T03:54:55.422Z,82.67
2019-02-20T03:55:55.403Z,82.95
2019-02-20T03:56:55.383Z,82.86
2019-02-20T03:57:55.372Z,82.86
2019-02-20T03:58:55.344Z,82.67
2019-02-20T03:59:55.325Z,82.95
2019-02-20T04:00:55.314Z,82.76
2019-02-20T04:01:55.288Z,82.57
2019-02-20T04:02:55.268Z,83.20
2019-02-20T04:03:55.248Z,83.14
2019-02-20T04:04:55.229Z,83.01
2019-02-20T04:05:55.356Z,83.10
2019-02-20T04:06:55.185Z,82.63
2019-02-20T04:07:55.163Z,82.63
2019-02-20T04:08:55.149Z,82.82
2019-02-20T04:09:55.125Z,82.72
2019-02-20T04:10:55.116Z,83.10
2019-02-20T04:11:55.094Z,83.10
2019-02-20T04:12:55.068Z,83.10
2019-02-20T04:13:55.049Z,83.10
2019-02-20T04:14:55.027Z,83.48
2019-02-20T04:15:55.008Z,83.29
2019-02-20T04:16:54.994Z,83.01
2019-02-20T04:17:54.971Z,83.20
2019-02-20T04:18:54.950Z,83.10
2019-02-20T04:19:54.949Z,83.20
2019-02-20T04:20:54.922Z,83.20
2019-02-20T04:21:54.939Z,83.20
2019-02-20T04:22:54.871Z,83.58
2019-02-20T04:24:01.930Z,83.34
2019-02-20T04:24:54.849Z,83.91
2019-02-20T04:25:54.810Z,83.91
2019-02-20T04:26:54.795Z,83.63
2019-02-20T04:27:54.788Z,83.63
2019-02-20T04:28:54.752Z,83.63
2019-02-20T04:29:54.730Z,83.63
2019-02-20T04:30:54.720Z,83.72
2019-02-20T04:31:54.691Z,83.44
2019-02-20T04:32:54.671Z,83.44
2019-02-20T04:33:54.658Z,83.44
2019-02-20T04:34:54.634Z,83.91
2019-02-20T04:35:54.620Z,83.91
2019-02-20T04:36:54.598Z,83.72
2019-02-20T04:37:54.584Z,84.10
2019-02-20T04:38:54.557Z,83.82
2019-02-20T04:39:54.564Z,84.01
2019-02-20T04:40:54.522Z,83.82
2019-02-20T04:41:54.519Z,83.63
2019-02-20T04:42:54.479Z,84.25
2019-02-20T04:43:54.457Z,84.06
2019-02-20T04:44:54.432Z,84.06
2019-02-20T04:45:54.409Z,84.25
2019-02-20T04:46:54.395Z,83.78
2019-02-20T04:47:54.374Z,84.34
2019-02-20T04:48:54.349Z,84.06
2019-02-20T04:49:54.338Z,84.72
2019-02-20T04:50:54.314Z,84.44
2019-02-20T04:51:54.284Z,84.53
2019-02-20T04:52:54.266Z,84.53
2019-02-20T04:53:54.246Z,84.72
2019-02-20T04:54:54.224Z,84.44
2019-02-20T04:55:54.199Z,84.44
2019-02-20T04:56:54.185Z,84.44
2019-02-20T04:57:54.164Z,84.34
2019-02-20T04:58:54.146Z,84.53
2019-02-20T04:59:54.132Z,84.44
2019-02-20T05:00:54.114Z,84.44
2019-02-20T05:01:54.087Z,84.34
2019-02-20T05:02:54.058Z,84.53
2019-02-20T05:03:54.042Z,84.44
2019-02-20T05:04:54.023Z,84.25
2019-02-20T05:05:53.997Z,84.63
2019-02-20T05:06:53.980Z,84.44
2019-02-20T05:07:53.956Z,84.34
2019-02-20T05:08:53.945Z,84.91
2019-02-20T05:09:53.922Z,84.63
2019-02-20T05:10:53.916Z,84.63
2019-02-20T05:11:53.885Z,84.81
2019-02-20T05:12:53.864Z,84.96
2019-02-20T05:13:53.859Z,84.63
2019-02-20T05:14:53.810Z,84.72
2019-02-20T05:15:53.813Z,84.86
2019-02-20T05:16:53.766Z,84.68
2019-02-20T05:17:53.766Z,84.77
2019-02-20T05:18:53.731Z,84.86
2019-02-20T05:19:53.726Z,84.86
2019-02-20T05:20:53.723Z,85.05
2019-02-20T05:21:53.678Z,85.05
2019-02-20T05:22:53.655Z,85.15
2019-02-20T05:23:53.631Z,84.68
2019-02-20T05:24:53.614Z,85.05
2019-02-20T05:25:53.593Z,85.05
2019-02-20T05:26:53.566Z,85.15
2019-02-20T05:27:53.552Z,85.15
2019-02-20T05:28:53.532Z,85.15
2019-02-20T05:29:53.501Z,85.15
2019-02-20T05:30:53.490Z,85.10
2019-02-20T05:31:53.464Z,85.38
2019-02-20T05:32:53.445Z,85.57
2019-02-20T05:33:53.418Z,85.10
2019-02-20T05:34:53.400Z,85.47
2019-02-20T05:35:53.451Z,84.91
2019-02-20T05:36:53.360Z,85.47
2019-02-20T05:37:53.338Z,85.47
2019-02-20T05:38:53.325Z,85.00
2019-02-20T05:39:53.301Z,85.00
2019-02-20T05:40:53.280Z,85.05
2019-02-20T05:41:53.271Z,84.67
2019-02-20T05:42:53.239Z,84.86
2019-02-20T05:43:53.229Z,84.77
2019-02-20T05:44:53.191Z,84.67
2019-02-20T05:45:53.176Z,84.39
2019-02-20T05:46:53.156Z,84.42
2019-02-20T05:47:53.155Z,84.42
2019-02-20T05:48:53.120Z,84.14
2019-02-20T05:49:53.102Z,84.14
2019-02-20T05:50:53.102Z,83.86
2019-02-20T05:51:53.053Z,83.95
2019-02-20T05:52:53.046Z,83.48
2019-02-20T05:53:53.043Z,83.58
2019-02-20T05:54:52.997Z,83.76
2019-02-20T05:55:52.974Z,83.81
2019-02-20T05:56:52.953Z,83.71
2019-02-20T05:57:52.946Z,83.14
2019-02-20T05:58:52.907Z,83.14
2019-02-20T05:59:52.891Z,82.86
2019-02-20T06:00:52.886Z,83.71
2019-02-20T06:01:52.852Z,83.24
2019-02-20T06:02:52.851Z,83.14
2019-02-20T06:03:52.818Z,83.14
2019-02-20T06:04:52.811Z,83.05
2019-02-20T06:05:52.806Z,83.00
2019-02-20T06:06:52.760Z,83.24
2019-02-20T06:07:52.738Z,83.18
2019-02-20T06:08:52.717Z,83.09
2019-02-20T06:09:52.701Z,83.37
2019-02-20T06:10:52.677Z,83.00
2019-02-20T06:11:52.655Z,83.47
2019-02-20T06:12:52.638Z,82.90
2019-02-20T06:13:52.615Z,83.09
2019-02-20T06:14:52.618Z,83.18
2019-02-20T06:15:52.577Z,83.09
2019-02-20T06:16:52.559Z,83.85
2019-02-20T06:17:52.541Z,84.04
2019-02-20T06:18:52.535Z,83.85
2019-02-20T06:19:52.497Z,83.75
2019-02-20T06:20:52.490Z,83.75
2019-02-20T06:21:52.456Z,83.94
2019-02-20T06:22:52.473Z,83.66
2019-02-20T06:23:52.422Z,84.04
2019-02-20T06:24:52.416Z,84.13
2019-02-20T06:25:52.382Z,84.13
2019-02-20T06:26:52.362Z,83.56
2019-02-20T06:27:52.346Z,83.75
2019-02-20T06:28:52.324Z,83.66
2019-02-20T06:29:52.311Z,83.66
2019-02-20T06:30:52.292Z,83.56
2019-02-20T06:31:52.263Z,84.04
2019-02-20T06:32:52.245Z,84.13
2019-02-20T06:33:52.228Z,83.85
2019-02-20T06:34:52.210Z,83.75
2019-02-20T06:35:52.195Z,84.42
2019-02-20T06:36:52.171Z,84.32
2019-02-20T06:37:52.152Z,84.23
2019-02-20T06:38:52.136Z,84.13
2019-02-20T06:39:52.113Z,84.23
2019-02-20T06:40:52.103Z,84.13
2019-02-20T06:41:52.071Z,84.61
2019-02-20T06:42:52.051Z,84.04
2019-02-20T06:43:52.040Z,84.61
2019-02-20T06:44:52.019Z,84.23
2019-02-20T06:45:51.996Z,84.42
2019-02-20T06:46:51.985Z,84.23
2019-02-20T06:47:51.973Z,84.13
2019-02-20T06:48:51.934Z,84.51
2019-02-20T06:49:51.921Z,84.51
2019-02-20T06:50:51.896Z,84.51
2019-02-20T06:51:51.880Z,84.42
2019-02-20T06:52:51.859Z,84.32
2019-02-20T06:53:51.845Z,84.04
2019-02-20T06:54:54.155Z,84.51
2019-02-20T06:55:51.798Z,84.42
2019-02-20T06:56:51.785Z,84.42
2019-02-20T06:57:51.756Z,84.42
2019-02-20T06:58:51.745Z,84.42
2019-02-20T06:59:51.732Z,84.61
2019-02-20T07:00:51.706Z,84.42
2019-02-20T07:01:51.684Z,84.61
2019-02-20T07:02:51.679Z,84.51
2019-02-20T07:03:51.654Z,84.51
2019-02-20T07:04:51.630Z,84.23
2019-02-20T07:05:51.608Z,84.70
2019-02-20T07:06:51.591Z,84.51
2019-02-20T07:07:51.570Z,84.94
2019-02-20T07:08:51.559Z,84.61
2019-02-20T07:09:51.525Z,84.84
2019-02-20T07:10:51.515Z,84.84
2019-02-20T07:11:51.490Z,84.27
2019-02-20T07:12:51.471Z,84.36
2019-02-20T07:13:51.453Z,84.94
2019-02-20T07:14:51.436Z,84.74
2019-02-20T07:15:51.415Z,84.55
2019-02-20T07:16:51.398Z,84.46
2019-02-20T07:17:51.378Z,84.46
2019-02-20T07:18:51.364Z,84.74
2019-02-20T07:19:51.334Z,84.46
2019-02-20T07:20:51.326Z,84.65
2019-02-20T07:21:51.308Z,84.27
2019-02-20T07:22:51.275Z,84.46
2019-02-20T07:23:51.263Z,83.80
2019-02-20T07:24:51.241Z,84.08
2019-02-20T07:25:51.224Z,84.08
2019-02-20T07:26:51.202Z,84.17
2019-02-20T07:27:51.185Z,84.08
2019-02-20T07:28:51.181Z,84.03
2019-02-20T07:29:51.146Z,84.12
2019-02-20T07:30:51.130Z,84.12
2019-02-20T07:31:51.118Z,84.03
2019-02-20T07:32:51.090Z,84.31
2019-02-20T07:33:51.080Z,84.31
2019-02-20T07:34:51.051Z,84.12
2019-02-20T07:35:51.056Z,84.03
2019-02-20T07:36:51.015Z,83.65
2019-02-20T07:37:51.010Z,83.65
2019-02-20T07:38:50.980Z,83.84
2019-02-20T07:39:50.959Z,83.84
2019-02-20T07:40:50.938Z,83.94
2019-02-20T07:41:50.924Z,83.94
2019-02-20T07:42:50.917Z,83.74
2019-02-20T07:43:50.909Z,84.12
2019-02-20T07:44:50.865Z,84.03
2019-02-20T07:45:50.859Z,83.55
2019-02-20T07:46:50.826Z,83.84
2019-02-20T07:47:50.810Z,83.84
2019-02-20T07:48:50.785Z,83.36
2019-02-20T07:49:50.771Z,83.36
2019-02-20T07:50:50.757Z,83.27
2019-02-20T07:51:50.736Z,83.55
2019-02-20T07:52:50.714Z,83.50
2019-02-20T07:53:50.785Z,83.22
2019-02-20T07:54:50.725Z,83.69
2019-02-20T07:55:50.658Z,83.40
2019-02-20T07:56:50.655Z,83.40
2019-02-20T07:57:50.631Z,82.93
2019-02-20T07:58:50.605Z,83.22
2019-02-20T07:59:50.592Z,83.22
2019-02-20T08:00:50.571Z,83.40
2019-02-20T08:01:50.570Z,82.84
2019-02-20T08:02:50.528Z,82.84
2019-02-20T08:03:50.510Z,82.93
2019-02-20T08:04:50.493Z,83.03
2019-02-20T08:05:50.484Z,82.78
2019-02-20T08:06:50.468Z,82.40
2019-02-20T08:07:50.468Z,82.40
2019-02-20T08:08:50.423Z,82.40
2019-02-20T08:09:50.408Z,82.88
2019-02-20T08:10:50.398Z,82.78
2019-02-20T08:11:50.365Z,82.88
2019-02-20T08:12:50.352Z,82.12
2019-02-20T08:13:50.333Z,82.21
2019-02-20T08:14:50.314Z,82.31
2019-02-20T08:15:50.301Z,82.40
2019-02-20T08:16:52.602Z,82.21
2019-02-20T08:17:50.262Z,82.03
2019-02-20T08:18:50.242Z,82.21
2019-02-20T08:19:50.221Z,82.03
2019-02-20T08:20:50.205Z,81.93
2019-02-20T08:21:50.188Z,82.03
2019-02-20T08:22:50.165Z,82.26
2019-02-20T08:23:50.158Z,81.87
2019-02-20T08:24:50.136Z,81.97
2019-02-20T08:25:50.114Z,82.16
2019-02-20T08:26:50.099Z,82.07
2019-02-20T08:27:50.081Z,81.78
2019-02-20T08:28:50.078Z,81.68
2019-02-20T08:29:50.056Z,81.97
2019-02-20T08:30:50.034Z,81.78
2019-02-20T08:31:50.010Z,81.68
2019-02-20T08:32:50.005Z,81.40
2019-02-20T08:33:50.007Z,81.44
2019-02-20T08:34:49.982Z,81.35
2019-02-20T08:35:49.943Z,81.16
2019-02-20T08:36:49.920Z,80.96
2019-02-20T08:37:49.924Z,81.06
2019-02-20T08:38:49.892Z,81.06
2019-02-20T08:39:49.876Z,81.06
2019-02-20T08:40:49.858Z,80.96
2019-02-20T08:41:49.848Z,80.87
2019-02-20T08:42:49.823Z,80.77
2019-02-20T08:43:49.817Z,80.96
2019-02-20T08:44:49.805Z,80.77
2019-02-20T08:45:49.775Z,80.58
2019-02-20T08:46:49.759Z,80.53
2019-02-20T08:47:49.748Z,80.15
2019-02-20T08:48:49.722Z,80.05
2019-02-20T08:49:49.709Z,79.20
2019-02-20T08:50:49.699Z,79.49
2019-02-20T08:51:49.680Z,79.58
2019-02-20T08:52:49.658Z,79.49
2019-02-20T08:53:49.642Z,79.39
2019-02-20T08:54:49.625Z,79.77
2019-02-20T08:55:49.610Z,79.43
2019-02-20T08:56:49.598Z,79.05
2019-02-20T08:57:49.577Z,79.24
2019-02-20T08:58:49.555Z,78.67
2019-02-20T08:59:49.548Z,78.67
2019-02-20T09:00:49.536Z,78.86
2019-02-20T09:01:49.512Z,78.19
2019-02-20T09:02:49.488Z,78.57
2019-02-20T09:03:49.477Z,78.14
2019-02-20T09:04:49.462Z,78.33
2019-02-20T09:05:49.455Z,78.52
2019-02-20T09:06:49.433Z,78.14
2019-02-20T09:07:49.418Z,77.47
2019-02-20T09:08:49.407Z,77.95
2019-02-20T09:09:49.387Z,77.98
2019-02-20T09:10:49.370Z,77.61
2019-02-20T09:11:49.347Z,77.51
2019-02-20T09:12:49.343Z,76.40
2019-02-20T09:13:49.326Z,75.93
2019-02-20T09:14:49.313Z,75.07
2019-02-20T09:15:49.299Z,74.88
2019-02-20T09:16:49.296Z,74.50
2019-02-20T09:17:49.291Z,74.40
2019-02-20T09:18:49.252Z,74.79
2019-02-20T09:19:49.231Z,74.50
2019-02-20T09:20:49.233Z,74.40
2019-02-20T09:21:49.207Z,74.60
2019-02-20T09:22:49.192Z,74.21
2019-02-20T09:23:49.179Z,74.54
2019-02-20T09:24:49.162Z,73.87
2019-02-20T09:25:49.147Z,73.58
2019-02-20T09:26:49.159Z,72.82
2019-02-20T09:27:49.112Z,72.72
2019-02-20T09:28:49.117Z,72.44
2019-02-20T09:29:49.086Z,71.96
2019-02-20T09:30:49.075Z,71.77
2019-02-20T09:31:49.059Z,71.72
2019-02-20T09:32:49.051Z,72.00
2019-02-20T09:33:49.041Z,71.14
2019-02-20T09:34:49.193Z,70.95
2019-02-20T09:35:49.013Z,71.43
2019-02-20T09:36:48.989Z,70.95
2019-02-20T09:37:48.976Z,70.70
2019-02-20T09:38:48.961Z,70.03
2019-02-20T09:39:48.961Z,70.03
2019-02-20T09:40:48.924Z,69.56
2019-02-20T09:41:48.920Z,69.37
2019-02-20T09:42:48.916Z,69.08
2019-02-20T09:43:48.895Z,68.88
2019-02-20T09:44:48.876Z,69.08
2019-02-20T09:45:48.862Z,69.37
2019-02-20T09:46:48.850Z,69.65
2019-02-20T09:47:48.828Z,69.08
2019-02-20T09:48:48.822Z,69.17
2019-02-20T09:49:48.808Z,68.82
2019-02-20T09:50:48.793Z,68.54
2019-02-20T09:51:48.775Z,68.73
2019-02-20T09:52:52.272Z,68.00
2019-02-20T09:53:48.749Z,68.10
2019-02-20T09:54:48.734Z,67.81
2019-02-20T09:55:51.626Z,67.46
2019-02-20T09:56:48.710Z,67.75
2019-02-20T09:57:48.693Z,67.49
2019-02-20T09:58:48.680Z,66.54
2019-02-20T09:59:48.673Z,65.77
2019-02-20T10:00:48.664Z,65.87
2019-02-20T10:01:48.643Z,65.14
2019-02-20T10:02:48.679Z,65.14
2019-02-20T10:03:48.620Z,64.18
2019-02-20T10:04:48.611Z,63.51
2019-02-20T10:05:48.591Z,64.18
2019-02-20T10:06:48.584Z,64.37
2019-02-20T10:07:48.564Z,64.12
2019-02-20T10:08:48.552Z,64.22
2019-02-20T10:09:48.540Z,63.83
2019-02-20T10:10:48.541Z,63.48
2019-02-20T10:11:49.810Z,63.29
2019-02-20T10:12:48.507Z,62.55
2019-02-20T10:13:48.535Z,62.74
2019-02-20T10:14:48.481Z,61.69
2019-02-20T10:15:48.474Z,61.21
2019-02-20T10:16:48.506Z,60.06
2019-02-20T10:17:48.455Z,60.06
2019-02-20T10:18:48.426Z,59.58
2019-02-20T10:19:48.424Z,59.61
2019-02-20T10:20:48.422Z,59.42
2019-02-20T10:21:48.402Z,59.58
2019-02-20T10:22:48.384Z,59.01
2019-02-20T10:23:48.395Z,59.01
2019-02-20T10:24:48.365Z,58.62
2019-02-20T10:25:48.364Z,58.91
2019-02-20T10:26:48.342Z,59.11
2019-02-20T10:27:48.338Z,58.75
2019-02-20T10:28:48.324Z,57.76
2019-02-20T10:29:48.326Z,57.95
2019-02-20T10:30:48.293Z,57.19
2019-02-20T10:31:49.189Z,57.67
2019-02-20T10:32:48.275Z,57.35
2019-02-20T10:33:48.268Z,57.92
2019-02-20T10:34:48.252Z,58.22
2019-02-20T10:35:48.286Z,57.92
2019-02-20T10:36:48.229Z,57.92
2019-02-20T10:37:48.218Z,58.09
2019-02-20T10:38:48.199Z,58.18
2019-02-20T10:39:48.188Z,57.77
2019-02-20T10:40:48.195Z,57.48
2019-02-20T10:41:48.163Z,57.97
2019-02-20T10:42:48.155Z,59.11
2019-02-20T10:43:48.147Z,59.01
2019-02-20T10:44:48.123Z,59.11
2019-02-20T10:45:48.121Z,59.11
2019-02-20T10:46:48.103Z,59.52
2019-02-20T10:47:48.093Z,59.23
2019-02-20T10:48:48.078Z,58.31
2019-02-20T10:49:48.066Z,57.73
2019-02-20T10:50:48.058Z,57.35
2019-02-20T10:51:48.035Z,56.99
2019-02-20T10:52:48.028Z,57.19
2019-02-20T10:53:48.020Z,55.97
2019-02-20T10:54:48.020Z,55.40
2019-02-20T10:55:47.996Z,55.30
2019-02-20T10:56:47.985Z,54.91
2019-02-20T10:57:47.974Z,54.53
2019-02-20T10:58:47.967Z,54.56
2019-02-20T10:59:47.957Z,54.56
2019-02-20T11:00:47.936Z,53.31
2019-02-20T11:01:47.930Z,53.22
2019-02-20T11:02:47.930Z,52.93
2019-02-20T11:03:47.912Z,52.33
2019-02-20T11:04:47.901Z,51.95
2019-02-20T11:05:47.886Z,52.11
2019-02-20T11:06:47.879Z,52.11
2019-02-20T11:07:47.874Z,52.28
2019-02-20T11:08:47.858Z,52.47
2019-02-20T11:09:47.842Z,53.33
2019-02-20T11:10:47.829Z,53.71
2019-02-20T11:11:47.825Z,53.59
2019-02-20T11:12:47.813Z,54.10
2019-02-20T11:13:47.814Z,54.28
2019-02-20T11:14:48.985Z,53.71
2019-02-20T11:15:47.806Z,53.62
2019-02-20T11:16:47.761Z,53.11
2019-02-20T11:17:47.764Z,53.14
2019-02-20T11:18:47.732Z,53.23
2019-02-20T11:19:47.727Z,53.33
2019-02-20T11:20:48.601Z,53.14
2019-02-20T11:21:47.710Z,52.40
2019-02-20T11:22:48.628Z,52.20
2019-02-20T11:23:47.678Z,52.11
2019-02-20T11:24:47.682Z,52.97
2019-02-20T11:25:47.660Z,52.23
2019-02-20T11:26:54.297Z,51.65
2019-02-20T11:27:47.646Z,51.30
2019-02-20T11:28:47.657Z,51.10
2019-02-20T11:29:47.614Z,50.46
2019-02-20T11:30:47.601Z,50.37
2019-02-20T11:31:47.589Z,49.50
2019-02-20T11:32:47.583Z,49.02
2019-02-20T11:33:47.573Z,48.74
2019-02-20T11:34:47.562Z,48.74
2019-02-20T11:35:47.555Z,47.94
2019-02-20T11:36:49.329Z,48.04
2019-02-20T11:37:47.547Z,48.59
2019-02-20T11:38:47.528Z,48.97
2019-02-20T11:39:47.568Z,49.33
2019-02-20T11:40:47.502Z,49.43
2019-02-20T11:41:47.493Z,50.00
2019-02-20T11:42:47.477Z,50.48
2019-02-20T11:43:47.467Z,50.36
2019-02-20T11:44:47.487Z,50.17
2019-02-20T11:45:47.457Z,50.15
2019-02-20T11:46:47.442Z,50.52
2019-02-20T11:47:47.432Z,50.91
2019-02-20T11:48:47.411Z,50.72
2019-02-20T11:49:47.397Z,51.20
2019-02-20T11:50:47.384Z,51.39
2019-02-20T11:51:47.382Z,52.03
2019-02-20T11:52:47.369Z,51.75
2019-02-20T11:53:47.349Z,51.97
2019-02-20T11:54:47.336Z,51.68
2019-02-20T11:55:47.348Z,52.15
2019-02-20T11:56:47.315Z,51.77
2019-02-20T11:57:47.308Z,51.77
2019-02-20T11:58:47.290Z,51.29
2019-02-20T11:59:47.282Z,51.39
2019-02-20T12:00:47.268Z,51.01
2019-02-20T12:01:47.261Z,51.20
2019-02-20T12:02:47.244Z,51.48
2019-02-20T12:03:47.237Z,50.91
2019-02-20T12:04:47.217Z,51.39
2019-02-20T12:05:47.221Z,51.51
2019-02-20T12:06:47.240Z,51.13
2019-02-20T12:07:47.183Z,51.44
2019-02-20T12:08:47.176Z,51.06
2019-02-20T12:09:47.165Z,50.00
2019-02-20T12:10:47.157Z,49.55
2019-02-20T12:11:47.146Z,49.55
2019-02-20T12:12:47.131Z,49.26
2019-02-20T12:13:47.112Z,49.29
2019-02-20T12:14:47.139Z,49.29
2019-02-20T12:15:47.092Z,48.44
2019-02-20T12:16:47.082Z,47.87
2019-02-20T12:17:47.074Z,47.80
2019-02-20T12:18:47.062Z,47.44
2019-02-20T12:19:47.053Z,46.86
2019-02-20T12:20:47.043Z,46.86
2019-02-20T12:21:47.046Z,45.71
2019-02-20T12:22:47.039Z,45.92
2019-02-20T12:23:47.014Z,45.92
2019-02-20T12:24:47.007Z,45.66
2019-02-20T12:25:46.992Z,44.60
2019-02-20T12:26:46.990Z,43.84
2019-02-20T12:27:47.022Z,43.84
2019-02-20T12:28:47.292Z,43.54
2019-02-20T12:29:46.987Z,43.95
2019-02-20T12:30:46.982Z,43.28
2019-02-20T12:31:52.547Z,43.85
2019-02-20T12:32:46.945Z,43.08
2019-02-20T12:33:46.940Z,43.01
2019-02-20T12:34:46.949Z,42.82
2019-02-20T12:35:46.916Z,42.53
2019-02-20T12:36:46.909Z,42.53
2019-02-20T12:37:46.901Z,42.53
2019-02-20T12:38:46.892Z,42.32
2019-02-20T12:39:46.884Z,42.03
2019-02-20T12:40:46.875Z,41.05
2019-02-20T12:41:46.883Z,42.00
2019-02-20T12:42:46.886Z,42.47
2019-02-20T12:43:46.851Z,42.37
2019-02-20T12:44:46.845Z,42.37
2019-02-20T12:45:46.836Z,42.56
2019-02-20T12:46:47.801Z,42.47
2019-02-20T12:47:46.821Z,42.27
2019-02-20T12:48:46.818Z,42.76
2019-02-20T12:49:46.802Z,42.85
2019-02-20T12:50:46.828Z,42.66
2019-02-20T12:51:46.801Z,42.25